Time;durP1;ratioP1;P1;durP2;ratioP2;P2;SDS_P1;SDS_P2;PMS_P1;PMS_P2;Temp;Humidity;BMP_temperature;BMP_pressure;BME280_temperature;BME280_humidity;BME280_pressure;Samples;Min_cycle;Max_cycle;Signal;HPM_P1;HPM_P2
2022/10/09 00:01:11;;;;;;;16.52;8.55;;;11.70;83.90;;;;;;5030001;28;20037;-72
2022/10/09 00:03:38;;;;;;;16.90;8.90;;;11.70;83.80;;;;;;5031757;28;20072;-71
2022/10/09 00:06:09;;;;;;;18.42;9.88;;;11.70;83.70;;;;;;5028156;28;20034;-72
2022/10/09 00:08:35;;;;;;;;;;;11.70;83.90;;;;;;5012832;28;20022;-73
2022/10/09 00:11:09;;;;;;;16.52;8.23;;;11.70;83.90;;;;;;5027899;28;19909;-73
2022/10/09 00:13:36;;;;;;;17.13;8.70;;;11.60;83.70;;;;;;5032271;28;20483;-72
2022/10/09 00:16:04;;;;;;;16.92;8.43;;;11.60;83.90;;;;;;5031009;28;20068;-72
2022/10/09 00:18:30;;;;;;;17.45;9.15;;;11.60;84.00;;;;;;5032195;28;20032;-72
2022/10/09 00:20:56;;;;;;;14.18;7.88;;;11.60;84.20;;;;;;5031056;28;20041;-72
2022/10/09 00:23:22;;;;;;;17.98;8.52;;;11.50;84.10;;;;;;5017475;28;20080;-72
2022/10/09 00:25:59;;;;;;;16.02;8.85;;;11.50;84.10;;;;;;5032053;28;20033;-72
2022/10/09 00:28:27;;;;;;;15.25;8.27;;;11.50;84.20;;;;;;5032069;28;20082;-72
2022/10/09 00:30:53;;;;;;;15.23;8.57;;;11.50;84.90;;;;;;5014059;28;20619;-72
2022/10/09 00:33:19;;;;;;;17.20;8.70;;;11.50;84.30;;;;;;5020055;28;20183;-72
2022/10/09 00:35:44;;;;;;;16.33;8.85;;;11.50;84.40;;;;;;5028608;28;20112;-73
2022/10/09 00:38:11;;;;;;;17.90;8.45;;;11.50;84.60;;;;;;5023213;28;20059;-73
2022/10/09 00:40:38;;;;;;;16.38;7.95;;;11.50;84.70;;;;;;5029609;28;20024;-72
2022/10/09 00:43:13;;;;;;;14.85;7.22;;;11.50;84.70;;;;;;5031526;28;20060;-72
2022/10/09 00:45:43;;;;;;;14.60;8.25;;;11.50;84.50;;;;;;5012976;28;20021;-72
2022/10/09 00:48:11;;;;;;;20.13;8.73;;;11.40;84.60;;;;;;5018781;28;20551;-72
2022/10/09 00:50:43;;;;;;;18.77;8.80;;;11.40;84.90;;;;;;5028884;28;20103;-72
2022/10/09 00:53:14;;;;;;;13.05;7.43;;;11.40;85.40;;;;;;5021129;28;20076;-72
2022/10/09 00:55:40;;;;;;;15.50;8.52;;;11.40;85.50;;;;;;5011007;28;20022;-72
2022/10/09 00:58:10;;;;;;;16.83;8.40;;;11.40;85.60;;;;;;5019999;28;20029;-73
2022/10/09 01:00:36;;;;;;;13.85;7.93;;;11.30;85.70;;;;;;5026893;28;20029;-72
2022/10/09 01:03:02;;;;;;;20.58;9.68;;;11.30;85.90;;;;;;5017510;28;20074;-74
2022/10/09 01:06:06;;;;;;;18.77;9.65;;;11.30;86.10;;;;;;5031398;28;20025;-72
2022/10/09 01:08:53;;;;;;;14.23;8.60;;;11.30;86.30;;;;;;4994259;28;20046;-73
2022/10/09 01:11:40;;;;;;;14.40;7.88;;;11.30;86.30;;;;;;5023110;28;20064;-72
2022/10/09 01:14:32;;;;;;;16.80;7.80;;;11.30;86.00;;;;;;5031002;28;20113;-72
2022/10/09 01:17:06;;;;;;;20.25;8.32;;;11.30;86.40;;;;;;5028731;28;20520;-72
2022/10/09 01:19:53;;;;;;;15.07;8.65;;;11.30;85.40;;;;;;5030812;28;20030;-72
2022/10/09 01:22:31;;;;;;;15.30;9.00;;;11.20;85.40;;;;;;5030354;28;20059;-72
2022/10/09 01:25:12;;;;;;;16.50;8.85;;;11.20;85.50;;;;;;5030347;28;20018;-73
2022/10/09 01:27:38;;;;;;;16.52;7.88;;;11.20;85.40;;;;;;5031470;28;20753;-72
2022/10/09 01:30:07;;;;;;;14.85;7.47;;;11.20;85.40;;;;;;5017154;28;20022;-73
2022/10/09 01:32:42;;;;;;;13.33;7.63;;;11.20;85.50;;;;;;5018059;28;20033;-73
2022/10/09 01:35:11;;;;;;;14.20;7.93;;;11.20;85.60;;;;;;5011946;28;20299;-72
2022/10/09 01:37:39;;;;;;;12.73;7.72;;;11.20;85.80;;;;;;5029876;28;20017;-72
2022/10/09 01:40:07;;;;;;;17.73;8.07;;;11.20;85.60;;;;;;5019280;28;20373;-73
2022/10/09 01:42:33;;;;;;;20.05;8.70;;;11.20;85.60;;;;;;5014066;28;20036;-72
2022/10/09 01:44:58;;;;;;;14.70;8.00;;;11.10;86.00;;;;;;5029630;28;20029;-72
2022/10/09 01:47:24;;;;;;;16.73;9.15;;;11.10;85.40;;;;;;5028892;28;20669;-73
2022/10/09 01:50:09;;;;;;;18.40;6.68;;;11.10;85.40;;;;;;5026199;28;20036;-73
2022/10/09 01:53:04;;;;;;;15.18;7.80;;;11.10;85.40;;;;;;5029453;28;20025;-72
2022/10/09 01:55:48;;;;;;;16.17;8.70;;;11.00;85.30;;;;;;5009390;28;20041;-72
2022/10/09 01:58:20;;;;;;;21.00;8.93;;;11.00;85.50;;;;;;5029409;28;20479;-73
2022/10/09 02:00:55;;;;;;;14.50;7.47;;;11.00;85.60;;;;;;5029415;28;20018;-72
2022/10/09 02:03:22;;;;;;;17.88;7.63;;;11.00;85.80;;;;;;5028763;28;20026;-73
2022/10/09 02:05:48;;;;;;;14.80;6.80;;;11.00;85.90;;;;;;5018054;28;20129;-73
2022/10/09 02:08:20;;;;;;;13.88;7.18;;;11.00;86.20;;;;;;5028550;28;20029;-72
2022/10/09 02:10:49;;;;;;;13.50;6.75;;;11.00;86.20;;;;;;5011427;28;20468;-72
2022/10/09 02:13:15;;;;;;;16.50;7.85;;;11.00;86.10;;;;;;5029594;28;20060;-73
2022/10/09 02:15:50;;;;;;;15.95;7.70;;;11.00;86.10;;;;;;5028801;28;20085;-73
2022/10/09 02:18:32;;;;;;;14.63;7.95;;;11.00;86.10;;;;;;5029194;28;20047;-73
2022/10/09 02:21:05;;;;;;;14.43;7.45;;;11.00;86.00;;;;;;5026793;28;20058;-73
2022/10/09 02:23:33;;;;;;;15.13;7.28;;;11.00;85.90;;;;;;5027307;28;20515;-73
2022/10/09 02:25:59;;;;;;;16.80;8.70;;;10.90;85.80;;;;;;5028967;28;20112;-73
2022/10/09 02:28:25;;;;;;;24.30;8.40;;;10.90;85.70;;;;;;5028451;28;20147;-72
2022/10/09 02:31:00;;;;;;;21.02;8.43;;;10.90;85.80;;;;;;5028755;28;20393;-72
2022/10/09 02:33:30;;;;;;;17.65;7.72;;;10.90;85.80;;;;;;5029018;28;20102;-73
2022/10/09 02:35:55;;;;;;;16.65;8.35;;;10.90;85.70;;;;;;5016923;28;20030;-72
2022/10/09 02:38:21;;;;;;;18.35;8.63;;;10.90;85.60;;;;;;5009410;28;20612;-72
2022/10/09 02:40:47;;;;;;;18.58;9.30;;;10.90;85.40;;;;;;5028439;28;20035;-72
2022/10/09 02:43:12;;;;;;;16.73;8.10;;;10.80;85.40;;;;;;5028925;28;20030;-73
2022/10/09 02:45:38;;;;;;;14.52;7.32;;;10.80;85.50;;;;;;5028177;28;20025;-73
2022/10/09 02:48:03;;;;;;;11.95;6.70;;;10.80;85.60;;;;;;5028617;28;20033;-73
2022/10/09 02:50:29;;;;;;;13.85;8.25;;;10.80;85.50;;;;;;5024048;28;20384;-72
2022/10/09 02:52:54;;;;;;;17.85;7.80;;;10.80;85.50;;;;;;5022305;28;20037;-73
2022/10/09 02:55:21;;;;;;;15.43;7.90;;;10.70;85.60;;;;;;5028605;28;20040;-72
2022/10/09 02:57:47;;;;;;;17.52;7.95;;;10.70;85.70;;;;;;5028910;28;20060;-73
2022/10/09 03:00:13;;;;;;;18.65;8.63;;;10.70;85.60;;;;;;5028911;28;20056;-72
2022/10/09 03:02:38;;;;;;;16.00;7.38;;;10.70;85.80;;;;;;5028137;28;20884;-72
2022/10/09 03:05:04;;;;;;;16.30;7.90;;;10.70;85.90;;;;;;5027725;28;20021;-72
2022/10/09 03:07:30;;;;;;;17.52;8.65;;;10.70;85.90;;;;;;5022510;28;20045;-73
2022/10/09 03:09:57;;;;;;;14.32;7.68;;;10.70;85.90;;;;;;5008968;28;20030;-73
2022/10/09 03:12:22;;;;;;;11.85;6.88;;;10.70;86.10;;;;;;5028392;28;20472;-72
2022/10/09 03:14:48;;;;;;;13.40;7.65;;;10.70;86.30;;;;;;5027447;28;20021;-73
2022/10/09 03:17:14;;;;;;;12.95;7.18;;;10.70;86.80;;;;;;5028463;28;20025;-73
2022/10/09 03:19:39;;;;;;;18.38;8.65;;;10.60;86.20;;;;;;5010451;28;20104;-73
2022/10/09 03:22:05;;;;;;;15.05;8.80;;;10.60;86.10;;;;;;5008030;28;20046;-73
2022/10/09 03:24:30;;;;;;;15.82;7.85;;;10.60;86.20;;;;;;5008255;28;20049;-73
2022/10/09 03:26:58;;;;;;;17.00;8.55;;;10.60;86.30;;;;;;5008162;28;20116;-73
2022/10/09 03:29:24;;;;;;;16.70;8.57;;;10.60;86.40;;;;;;5006514;28;20033;-73
2022/10/09 03:31:50;;;;;;;13.13;8.23;;;10.60;86.40;;;;;;5009071;28;20500;-74
2022/10/09 03:34:15;;;;;;;14.88;8.23;;;10.60;86.40;;;;;;5009232;28;20084;-73
2022/10/09 03:36:41;;;;;;;16.55;8.05;;;10.60;86.40;;;;;;5009101;28;20030;-73
2022/10/09 03:39:09;;;;;;;19.40;8.07;;;10.60;86.30;;;;;;5002795;28;20041;-73
2022/10/09 03:41:35;;;;;;;14.98;7.82;;;10.50;86.20;;;;;;5012160;28;20392;-72
2022/10/09 03:44:00;;;;;;;16.55;8.30;;;10.60;86.10;;;;;;5012110;28;20018;-72
2022/10/09 03:46:28;;;;;;;14.85;7.65;;;10.50;86.10;;;;;;5011385;28;20092;-72
2022/10/09 03:48:54;;;;;;;13.50;7.63;;;10.50;86.10;;;;;;5013218;28;20045;-73
2022/10/09 03:51:19;;;;;;;17.13;8.70;;;10.50;86.00;;;;;;5012965;28;20469;-72
2022/10/09 03:53:45;;;;;;;15.60;8.57;;;10.50;86.00;;;;;;5010468;28;20023;-73
2022/10/09 03:56:11;;;;;;;20.08;8.35;;;10.50;86.00;;;;;;4993976;28;20037;-73
2022/10/09 03:58:36;;;;;;;12.85;8.15;;;10.50;86.10;;;;;;5009926;28;20018;-73
2022/10/09 04:01:02;;;;;;;14.02;7.93;;;10.50;86.00;;;;;;4993855;28;20030;-73
2022/10/09 04:03:28;;;;;;;17.25;8.65;;;10.40;85.90;;;;;;5006951;28;20109;-73
2022/10/09 04:05:53;;;;;;;18.10;8.18;;;10.50;86.00;;;;;;5010821;28;20072;-72
2022/10/09 04:08:19;;;;;;;14.77;7.35;;;10.40;85.90;;;;;;5012157;28;20045;-73
2022/10/09 04:10:44;;;;;;;15.73;8.57;;;10.40;85.90;;;;;;4997673;28;20030;-73
2022/10/09 04:13:10;;;;;;;15.35;8.52;;;10.40;85.90;;;;;;5001761;28;20010;-72
2022/10/09 04:15:36;;;;;;;14.85;8.90;;;10.40;85.70;;;;;;5012230;28;20109;-73
2022/10/09 04:18:03;;;;;;;17.52;8.07;;;10.40;86.20;;;;;;5010525;28;20501;-73
2022/10/09 04:20:29;;;;;;;15.65;8.75;;;10.30;85.50;;;;;;5014974;28;20050;-73
2022/10/09 04:22:54;;;;;;;21.00;8.52;;;10.30;85.60;;;;;;5032232;28;20516;-73
2022/10/09 04:25:20;;;;;;;23.95;10.48;;;10.30;85.70;;;;;;5031973;28;20123;-72
2022/10/09 04:27:46;;;;;;;22.55;8.75;;;10.30;85.90;;;;;;5032300;28;20048;-73
2022/10/09 04:30:12;;;;;;;16.70;9.13;;;10.30;86.00;;;;;;5032538;28;20468;-73
2022/10/09 04:32:37;;;;;;;17.65;8.27;;;10.30;86.00;;;;;;5032236;28;20026;-73
2022/10/09 04:35:04;;;;;;;17.65;8.75;;;10.30;86.10;;;;;;5031839;28;20032;-72
2022/10/09 04:37:29;;;;;;;15.85;7.68;;;10.30;86.00;;;;;;5032443;28;20029;-73
2022/10/09 04:39:55;;;;;;;15.75;8.13;;;10.30;86.00;;;;;;5032053;28;20033;-72
2022/10/09 04:42:20;;;;;;;15.95;8.77;;;10.30;85.90;;;;;;5011436;28;20034;-71
2022/10/09 04:44:46;;;;;;;16.38;8.55;;;10.20;85.80;;;;;;5026225;28;20097;-71
2022/10/09 04:47:11;;;;;;;15.35;8.63;;;10.30;86.10;;;;;;5031576;28;20041;-71
2022/10/09 04:49:38;;;;;;;16.80;8.13;;;10.30;86.20;;;;;;5031275;28;20033;-71
2022/10/09 04:52:03;;;;;;;16.95;8.82;;;10.30;86.20;;;;;;5031028;28;20025;-73
2022/10/09 04:54:29;;;;;;;13.63;8.18;;;10.30;86.20;;;;;;5027695;28;20477;-73
2022/10/09 04:56:54;;;;;;;13.35;8.18;;;10.20;86.10;;;;;;5020650;28;20025;-74
2022/10/09 04:59:20;;;;;;;13.93;7.78;;;10.20;85.90;;;;;;5030198;28;20021;-73
2022/10/09 05:01:46;;;;;;;15.57;7.93;;;10.20;86.00;;;;;;5020979;28;20034;-73
2022/10/09 05:04:14;;;;;;;14.30;7.07;;;10.20;86.00;;;;;;5014021;28;20075;-72
2022/10/09 05:06:39;;;;;;;17.08;8.15;;;10.20;86.10;;;;;;5022814;28;20447;-71
2022/10/09 05:09:05;;;;;;;12.52;7.38;;;10.20;86.20;;;;;;5011608;28;20117;-71
2022/10/09 05:11:31;;;;;;;13.75;7.55;;;10.10;86.00;;;;;;5029633;28;20029;-72
2022/10/09 05:13:57;;;;;;;15.50;7.45;;;10.20;86.00;;;;;;5031102;28;20480;-72
2022/10/09 05:16:26;;;;;;;12.50;6.78;;;10.20;85.80;;;;;;5021764;28;20025;-72
2022/10/09 05:18:54;;;;;;;11.65;6.55;;;10.10;85.70;;;;;;5020395;28;20021;-72
2022/10/09 05:21:20;;;;;;;14.70;8.32;;;10.20;85.60;;;;;;5028661;28;20128;-72
2022/10/09 05:23:47;;;;;;;13.82;7.50;;;10.10;85.40;;;;;;5017821;28;20033;-72
2022/10/09 05:26:16;;;;;;;10.45;6.30;;;10.10;85.40;;;;;;5029211;28;20531;-72
2022/10/09 05:28:42;;;;;;;9.00;5.97;;;10.10;85.40;;;;;;5026828;28;20599;-72
2022/10/09 05:31:08;;;;;;;14.60;8.15;;;10.10;85.40;;;;;;5029821;28;20030;-72
2022/10/09 05:33:34;;;;;;;13.75;6.97;;;10.00;85.40;;;;;;5030558;28;20026;-72
2022/10/09 05:36:03;;;;;;;13.13;7.78;;;10.00;85.70;;;;;;5027451;28;20040;-72
2022/10/09 05:38:31;;;;;;;14.57;7.57;;;10.00;85.80;;;;;;5029413;28;20484;-73
2022/10/09 05:40:59;;;;;;;13.63;7.15;;;10.00;85.70;;;;;;5029693;28;20021;-72
2022/10/09 05:43:27;;;;;;;10.13;6.55;;;10.00;85.90;;;;;;5009435;28;20100;-73
2022/10/09 05:45:53;;;;;;;14.77;7.32;;;10.00;85.90;;;;;;5010165;28;20029;-73
2022/10/09 05:48:21;;;;;;;11.90;6.90;;;10.00;85.80;;;;;;5028615;28;20040;-73
2022/10/09 05:50:47;;;;;;;13.98;7.95;;;10.00;85.90;;;;;;5028599;28;20805;-73
2022/10/09 05:53:19;;;;;;;14.10;6.88;;;9.90;85.70;;;;;;5028586;28;20057;-73
2022/10/09 05:55:44;;;;;;;12.43;7.85;;;9.90;85.70;;;;;;5028280;28;20063;-73
2022/10/09 05:58:10;;;;;;;12.27;6.15;;;10.00;85.60;;;;;;5026029;28;20696;-71
2022/10/09 06:00:35;;;;;;;12.55;7.38;;;9.90;85.50;;;;;;5027538;28;20052;-71
2022/10/09 06:03:01;;;;;;;12.80;6.38;;;9.90;85.50;;;;;;5028789;28;20025;-71
2022/10/09 06:05:27;;;;;;;16.27;6.72;;;9.90;85.60;;;;;;5029261;28;20036;-73
2022/10/09 06:07:52;;;;;;;11.10;7.15;;;9.90;85.70;;;;;;5028100;28;20042;-72
2022/10/09 06:10:18;;;;;;;13.27;6.40;;;9.90;86.10;;;;;;5028684;28;20067;-72
2022/10/09 06:12:44;;;;;;;13.30;6.88;;;10.00;86.80;;;;;;5029611;28;20060;-71
2022/10/09 06:15:09;;;;;;;10.38;6.22;;;10.10;87.00;;;;;;5029210;28;20072;-73
2022/10/09 06:17:35;;;;;;;11.45;5.90;;;10.20;87.00;;;;;;5011237;28;20022;-72
2022/10/09 06:20:01;;;;;;;11.40;5.85;;;10.20;86.90;;;;;;5029774;28;20567;-73
2022/10/09 06:22:26;;;;;;;9.52;5.47;;;10.30;87.00;;;;;;5029183;28;20045;-72
2022/10/09 06:24:52;;;;;;;14.98;5.70;;;10.40;87.00;;;;;;5030117;28;20112;-73
2022/10/09 06:27:17;;;;;;;10.68;5.45;;;10.50;87.00;;;;;;5011584;28;20491;-73
2022/10/09 06:29:43;;;;;;;11.07;6.38;;;10.60;87.00;;;;;;5029059;28;20064;-73
2022/10/09 06:32:09;;;;;;;11.48;5.47;;;10.70;87.10;;;;;;5029606;28;20017;-72
2022/10/09 06:34:34;;;;;;;13.63;7.03;;;10.80;86.80;;;;;;5029077;28;20022;-72
2022/10/09 06:37:00;;;;;;;11.15;6.18;;;10.90;87.10;;;;;;5027928;28;20096;-74
2022/10/09 06:39:26;;;;;;;13.20;6.05;;;11.10;86.40;;;;;;5028135;28;20040;-73
2022/10/09 06:41:51;;;;;;;12.35;6.30;;;11.20;86.30;;;;;;5029414;28;20029;-72
2022/10/09 06:44:18;;;;;;;11.82;5.40;;;11.30;86.20;;;;;;5026265;28;20021;-73
2022/10/09 06:46:47;;;;;;;14.27;5.35;;;11.50;86.10;;;;;;5009824;28;20030;-72
2022/10/09 06:49:12;;;;;;;8.80;5.03;;;11.60;85.60;;;;;;5028861;28;20033;-72
2022/10/09 06:51:39;;;;;;;13.13;5.45;;;11.70;85.50;;;;;;5010035;28;20710;-73
2022/10/09 06:54:11;;;;;;;9.63;4.82;;;11.90;85.00;;;;;;5023874;28;20167;-73
2022/10/09 06:56:37;;;;;;;8.63;4.78;;;12.00;85.00;;;;;;5030552;28;20032;-70
2022/10/09 06:59:05;;;;;;;11.35;4.50;;;12.10;84.60;;;;;;5029101;28;20133;-73
2022/10/09 07:01:31;;;;;;;12.65;5.78;;;12.30;84.20;;;;;;5028842;28;20419;-72
2022/10/09 07:03:59;;;;;;;13.60;5.20;;;12.40;83.60;;;;;;5026938;28;20021;-72
2022/10/09 07:06:30;;;;;;;11.10;4.97;;;12.50;83.20;;;;;;5024604;28;20037;-73
2022/10/09 07:08:59;;;;;;;11.57;6.20;;;12.60;82.80;;;;;;5007465;28;20043;-73
2022/10/09 07:11:30;;;;;;;10.68;6.63;;;12.70;82.50;;;;;;5029953;28;20891;-73
2022/10/09 07:13:59;;;;;;;8.93;5.15;;;12.80;82.00;;;;;;5029166;28;20017;-72
2022/10/09 07:16:37;;;;;;;12.07;6.10;;;12.90;82.00;;;;;;5031817;28;20029;-73
2022/10/09 07:19:06;;;;;;;16.48;5.55;;;12.90;81.00;;;;;;5027146;28;20032;-73
2022/10/09 07:21:34;;;;;;;10.32;4.30;;;12.90;80.50;;;;;;5013302;28;20041;-73
2022/10/09 07:24:01;;;;;;;16.98;4.70;;;12.90;80.60;;;;;;5012958;28;20017;-73
2022/10/09 07:26:28;;;;;;;12.82;5.32;;;13.00;80.50;;;;;;5027212;28;20140;-73
2022/10/09 07:28:54;;;;;;;7.32;3.92;;;13.00;80.10;;;;;;5028515;28;20434;-72
2022/10/09 07:31:21;;;;;;;11.48;5.10;;;13.10;80.30;;;;;;5031346;28;20036;-72
2022/10/09 07:33:50;;;;;;;15.90;6.10;;;13.10;79.50;;;;;;5030943;28;20767;-74
2022/10/09 07:36:16;;;;;;;12.75;4.65;;;13.20;79.40;;;;;;5032070;28;20032;-73
2022/10/09 07:38:42;;;;;;;11.20;4.90;;;13.30;79.60;;;;;;5032137;28;20030;-73
2022/10/09 07:41:11;;;;;;;13.32;5.45;;;13.30;79.00;;;;;;5029332;28;20021;-72
2022/10/09 07:43:43;;;;;;;9.73;4.60;;;13.40;78.90;;;;;;5023872;28;20029;-73
2022/10/09 07:46:12;;;;;;;9.00;3.67;;;13.60;79.20;;;;;;5016204;28;20021;-73
2022/10/09 07:48:38;;;;;;;11.82;5.20;;;13.90;78.80;;;;;;5032782;28;20041;-74
2022/10/09 07:51:28;;;;;;;6.95;3.75;;;14.10;77.70;;;;;;5031795;28;20518;-74
2022/10/09 07:53:55;;;;;;;8.68;3.65;;;14.30;77.60;;;;;;5002468;28;20038;-73
2022/10/09 07:56:26;;;;;;;12.70;4.10;;;14.40;77.40;;;;;;5026522;28;20013;-74
2022/10/09 07:58:55;;;;;;;8.52;3.92;;;14.60;77.00;;;;;;5031637;28;20033;-74
2022/10/09 08:01:22;;;;;;;10.25;4.68;;;14.70;76.80;;;;;;5031675;28;20028;-74
2022/10/09 08:03:48;;;;;;;10.63;5.07;;;14.80;75.90;;;;;;5030646;28;20071;-75
2022/10/09 08:06:14;;;;;;;9.65;4.50;;;14.90;75.50;;;;;;5031258;28;20091;-75
2022/10/09 08:08:41;;;;;;;12.70;5.50;;;14.90;75.60;;;;;;5031485;28;20034;-74
2022/10/09 08:11:09;;;;;;;11.30;4.80;;;15.10;75.30;;;;;;5029643;28;20029;-75
2022/10/09 08:13:34;;;;;;;12.02;4.88;;;15.20;74.20;;;;;;5030747;28;20026;-75
2022/10/09 08:16:00;;;;;;;11.20;3.72;;;15.20;73.70;;;;;;5031084;28;20092;-73
2022/10/09 08:18:26;;;;;;;9.38;4.03;;;15.20;74.10;;;;;;5031927;28;20029;-74
2022/10/09 08:20:56;;;;;;;14.80;4.40;;;15.20;74.10;;;;;;5031734;28;20050;-74
2022/10/09 08:23:22;;;;;;;9.27;4.88;;;15.20;74.20;;;;;;5031330;28;20009;-74
2022/10/09 08:25:48;;;;;;;9.98;4.60;;;15.20;73.80;;;;;;5012525;28;20025;-74
2022/10/09 08:28:15;;;;;;;7.97;3.78;;;15.30;74.00;;;;;;5031371;28;20068;-75
2022/10/09 08:30:40;;;;;;;7.43;3.53;;;15.30;74.00;;;;;;5031901;28;20027;-75
2022/10/09 08:33:06;;;;;;;12.00;3.83;;;15.50;73.60;;;;;;5029368;28;20025;-74
2022/10/09 08:35:32;;;;;;;7.95;4.32;;;15.50;73.30;;;;;;5030446;28;20029;-75
2022/10/09 08:37:57;;;;;;;7.90;3.38;;;15.70;72.80;;;;;;5029357;28;20029;-74
2022/10/09 08:40:33;;;;;;;9.13;3.75;;;15.70;72.60;;;;;;5029013;28;20032;-74
2022/10/09 08:43:03;;;;;;;11.13;4.40;;;15.80;72.70;;;;;;5025396;28;20148;-76
2022/10/09 08:45:32;;;;;;;8.15;3.28;;;15.80;72.10;;;;;;5028960;28;20025;-75
2022/10/09 08:48:05;;;;;;;6.95;2.75;;;15.90;72.90;;;;;;5027198;28;20028;-75
2022/10/09 08:50:37;;;;;;;8.68;3.83;;;16.00;73.10;;;;;;5029650;28;20021;-75
2022/10/09 08:53:12;;;;;;;11.88;4.45;;;16.20;72.50;;;;;;5029992;28;20024;-75
2022/10/09 08:55:55;;;;;;;16.98;5.53;;;16.40;71.80;;;;;;5028469;28;20037;-75
2022/10/09 08:58:31;;;;;;;7.05;2.60;;;16.40;71.40;;;;;;5027037;28;20698;-73
2022/10/09 09:01:14;;;;;;;5.35;2.22;;;16.60;73.60;;;;;;5029540;28;20018;-73
2022/10/09 09:03:57;;;;;;;5.95;2.65;;;17.00;74.20;;;;;;5013071;28;20029;-76
2022/10/09 09:06:50;;;;;;;8.20;3.45;;;17.40;73.10;;;;;;5020583;28;20041;-80
2022/10/09 09:09:34;;;;;;;7.28;2.67;;;17.60;72.20;;;;;;5025648;28;20042;-75
2022/10/09 09:12:06;;;;;;;5.80;2.13;;;17.70;72.60;;;;;;4993691;28;20095;-75
2022/10/09 09:14:55;;;;;;;5.22;2.20;;;17.90;72.70;;;;;;5030115;28;20025;-75
2022/10/09 09:17:59;;;;;;;5.40;2.05;;;18.20;72.60;;;;;;5026989;28;20132;-74
2022/10/09 09:20:45;;;;;;;7.28;2.22;;;18.40;72.40;;;;;;5028388;28;20112;-78
2022/10/09 09:23:14;;;;;;;9.30;2.70;;;18.60;72.30;;;;;;5029144;28;20455;-76
2022/10/09 09:25:43;;;;;;;7.18;2.40;;;18.70;72.50;;;;;;5030509;28;20424;-77
2022/10/09 09:28:32;;;;;;;7.20;2.67;;;18.80;72.40;;;;;;5030207;28;20032;-77
2022/10/09 09:31:05;;;;;;;;;;;19.00;72.20;;;;;;5012809;28;20053;-77
2022/10/09 09:33:45;;;;;;;6.40;2.30;;;19.20;72.50;;;;;;5027940;28;19913;-76
2022/10/09 09:36:21;;;;;;;5.95;2.15;;;19.30;72.10;;;;;;5020462;28;20112;-77
2022/10/09 09:38:48;;;;;;;8.18;2.63;;;19.40;72.00;;;;;;5029185;28;20021;-76
2022/10/09 09:41:13;;;;;;;9.35;2.38;;;19.40;71.60;;;;;;5014122;28;20163;-76
2022/10/09 09:43:39;;;;;;;5.75;2.33;;;19.40;72.40;;;;;;5031144;28;20101;-77
2022/10/09 09:46:12;;;;;;;3.95;1.70;;;19.50;72.80;;;;;;5030336;28;20028;-74
2022/10/09 09:48:42;;;;;;;7.03;2.60;;;19.50;73.40;;;;;;5031567;28;20124;-74
2022/10/09 09:51:30;;;;;;;8.37;1.83;;;19.50;73.80;;;;;;5030986;28;20017;-75
2022/10/09 09:54:00;;;;;;;10.13;2.45;;;19.60;74.00;;;;;;5028476;28;20021;-74
2022/10/09 09:56:39;;;;;;;7.85;2.45;;;19.70;72.00;;;;;;5030941;28;20018;-76
2022/10/09 09:59:05;;;;;;;7.65;3.22;;;19.70;72.50;;;;;;5031213;28;20495;-75
2022/10/09 10:01:32;;;;;;;5.85;2.33;;;19.80;69.40;;;;;;5009207;28;20033;-76
2022/10/09 10:04:00;;;;;;;6.43;2.42;;;19.90;71.10;;;;;;5030826;28;20033;-76
2022/10/09 10:06:30;;;;;;;7.97;2.38;;;20.10;72.30;;;;;;5026680;28;20123;-76
2022/10/09 10:09:01;;;;;;;5.25;1.67;;;20.20;72.80;;;;;;5030161;28;20049;-76
2022/10/09 10:11:29;;;;;;;5.40;1.77;;;20.20;73.00;;;;;;5028450;28;20113;-75
2022/10/09 10:13:55;;;;;;;4.93;2.25;;;20.30;73.20;;;;;;5029432;28;20017;-75
2022/10/09 10:16:27;;;;;;;7.47;2.10;;;20.30;71.80;;;;;;5029323;28;20083;-76
2022/10/09 10:18:56;;;;;;;3.17;1.30;;;20.30;69.70;;;;;;5029647;28;20029;-75
2022/10/09 10:21:22;;;;;;;5.53;1.83;;;20.40;71.80;;;;;;5029135;28;20045;-76
2022/10/09 10:23:59;;;;;;;5.50;1.58;;;20.50;70.90;;;;;;5029555;28;20029;-76
2022/10/09 10:26:43;;;;;;;4.95;2.10;;;20.60;72.90;;;;;;5011084;28;20119;-76
2022/10/09 10:29:32;;;;;;;6.78;2.05;;;20.60;73.40;;;;;;4998966;28;20079;-75
2022/10/09 10:32:22;;;;;;;4.97;1.75;;;20.70;73.30;;;;;;5011597;28;20060;-75
2022/10/09 10:34:52;;;;;;;5.38;2.13;;;20.80;73.30;;;;;;5027206;28;20026;-74
2022/10/09 10:37:18;;;;;;;7.38;2.05;;;20.80;72.40;;;;;;5027412;28;20417;-76
2022/10/09 10:40:11;;;;;;;4.50;1.50;;;20.80;73.70;;;;;;5028145;28;20083;-75
2022/10/09 10:43:01;;;;;;;6.45;2.05;;;20.80;74.70;;;;;;5011139;28;20021;-74
2022/10/09 10:45:33;;;;;;;5.57;1.95;;;20.80;73.60;;;;;;5031057;28;20787;-74
2022/10/09 10:48:01;;;;;;;6.70;2.05;;;20.80;74.80;;;;;;5033040;28;20037;-73
2022/10/09 10:50:37;;;;;;;5.32;1.83;;;21.00;75.20;;;;;;5032521;28;20044;-75
2022/10/09 10:53:23;;;;;;;6.13;1.98;;;21.10;74.80;;;;;;5030779;28;20034;-73
2022/10/09 10:55:58;;;;;;;5.15;1.52;;;21.20;74.90;;;;;;5032877;28;20028;-74
2022/10/09 10:58:30;;;;;;;4.80;1.73;;;21.20;73.40;;;;;;5029732;28;20522;-74
2022/10/09 11:01:17;;;;;;;7.57;2.03;;;21.10;72.20;;;;;;5030146;28;20022;-74
2022/10/09 11:04:15;;;;;;;3.70;1.50;;;21.20;74.30;;;;;;5032479;28;20036;-74
2022/10/09 11:06:54;;;;;;;4.72;1.75;;;21.20;74.90;;;;;;5031734;28;20033;-73
2022/10/09 11:09:21;;;;;;;7.60;1.95;;;21.40;75.30;;;;;;5018236;28;20444;-74
2022/10/09 11:12:00;;;;;;;7.88;1.85;;;21.50;74.80;;;;;;5020664;28;20026;-73
2022/10/09 11:15:01;;;;;;;5.05;1.58;;;21.60;71.60;;;;;;5031910;28;20113;-72
2022/10/09 11:17:37;;;;;;;6.63;1.92;;;21.60;73.30;;;;;;5031916;28;20030;-74
2022/10/09 11:20:15;;;;;;;6.18;1.67;;;21.70;74.00;;;;;;5015293;28;20017;-74
2022/10/09 11:23:12;;;;;;;5.53;1.90;;;21.90;73.60;;;;;;5032005;28;20033;-73
2022/10/09 11:25:55;;;;;;;5.93;1.75;;;22.00;74.00;;;;;;5013905;28;20033;-73
2022/10/09 11:28:26;;;;;;;4.63;1.27;;;22.10;74.30;;;;;;5027394;28;20112;-74
2022/10/09 11:31:17;;;;;;;4.45;1.40;;;22.20;74.20;;;;;;5014368;28;20109;-74
2022/10/09 11:33:51;;;;;;;5.55;1.80;;;22.30;73.90;;;;;;5026770;28;20068;-74
2022/10/09 11:36:19;;;;;;;5.53;1.65;;;22.40;74.50;;;;;;5013368;28;20038;-73
2022/10/09 11:38:51;;;;;;;4.82;1.42;;;22.40;74.00;;;;;;5028278;28;20137;-74
2022/10/09 11:41:18;;;;;;;5.35;1.98;;;22.40;74.10;;;;;;5032414;28;20030;-75
2022/10/09 11:44:03;;;;;;;6.95;1.95;;;22.50;72.90;;;;;;5032097;28;20026;-75
2022/10/09 11:46:53;;;;;;;6.78;1.60;;;22.50;70.90;;;;;;5015248;28;20113;-76
2022/10/09 11:49:40;;;;;;;4.57;1.85;;;22.50;72.60;;;;;;5032087;28;20081;-76
2022/10/09 11:52:40;;;;;;;6.57;1.60;;;22.50;73.10;;;;;;5032440;28;20480;-75
2022/10/09 11:55:16;;;;;;;5.53;1.27;;;22.50;72.50;;;;;;5027058;28;20458;-74
2022/10/09 11:57:41;;;;;;;8.18;2.55;;;22.60;73.90;;;;;;5030948;28;20033;-74
2022/10/09 12:00:08;;;;;;;4.97;1.50;;;22.70;73.60;;;;;;5028933;28;20029;-74
2022/10/09 12:02:36;;;;;;;6.10;1.48;;;22.80;74.10;;;;;;5032300;28;20025;-74
2022/10/09 12:05:13;;;;;;;3.50;1.25;;;22.90;73.50;;;;;;5033089;28;20029;-74
2022/10/09 12:07:40;;;;;;;6.90;2.00;;;22.90;73.90;;;;;;5032906;28;20032;-73
2022/10/09 12:10:31;;;;;;;8.35;2.60;;;22.80;59.80;;;;;;5020118;28;20033;-73
2022/10/09 12:13:04;;;;;;;10.02;2.28;;;22.80;65.40;;;;;;5031441;28;20036;-73
2022/10/09 12:15:44;;;;;;;8.02;2.55;;;22.60;63.20;;;;;;5012405;28;20058;-73
2022/10/09 12:18:26;;;;;;;11.73;2.25;;;22.60;59.40;;;;;;5031355;28;20020;-73
2022/10/09 12:20:54;;;;;;;10.15;3.05;;;22.50;60.40;;;;;;5029046;28;20042;-73
2022/10/09 12:23:24;;;;;;;5.97;2.10;;;22.60;61.80;;;;;;5013857;28;20344;-74
2022/10/09 12:25:52;;;;;;;7.80;2.17;;;22.50;56.40;;;;;;5031569;28;20018;-73
2022/10/09 12:28:39;;;;;;;9.77;2.42;;;22.30;61.60;;;;;;5028587;28;20517;-74
2022/10/09 12:31:18;;;;;;;9.00;1.75;;;22.20;55.80;;;;;;5011431;28;20018;-74
2022/10/09 12:33:53;;;;;;;10.25;2.60;;;22.30;61.20;;;;;;5029679;28;20126;-75
2022/10/09 12:36:24;;;;;;;6.88;2.20;;;22.30;56.60;;;;;;5029248;28;20028;-76
2022/10/09 12:38:50;;;;;;;9.00;2.42;;;22.30;52.70;;;;;;5030294;28;20021;-74
2022/10/09 12:41:20;;;;;;;6.05;1.73;;;22.40;50.30;;;;;;5029698;28;20476;-74
2022/10/09 12:43:49;;;;;;;7.22;1.83;;;22.40;58.80;;;;;;5029984;28;20025;-74
2022/10/09 12:46:30;;;;;;;8.75;2.13;;;22.50;60.00;;;;;;5029826;28;20056;-73
2022/10/09 12:48:57;;;;;;;7.40;1.90;;;22.50;64.70;;;;;;5031060;28;20573;-74
2022/10/09 12:51:25;;;;;;;7.47;1.75;;;22.60;55.90;;;;;;5030568;28;20098;-73
2022/10/09 12:53:55;;;;;;;6.72;1.95;;;22.50;57.50;;;;;;5031870;28;20057;-74
2022/10/09 12:56:26;;;;;;;8.73;3.08;;;22.60;64.00;;;;;;4997434;28;20139;-74
2022/10/09 12:58:54;;;;;;;7.10;1.40;;;22.60;63.10;;;;;;5031190;28;20021;-74